sensor_id;sensor_type;location;lat;lon;timestamp;P1;durP1;ratioP1;P2;durP2;ratioP2
9698;SDS011;10089;47.876;8.346;2023-08-20T00:01:23;6.70;;;4.50;;
9698;SDS011;10089;47.876;8.346;2023-08-20T00:03:52;10.07;;;4.82;;
9698;SDS011;10089;47.876;8.346;2023-08-20T00:06:19;7.40;;;5.05;;
9698;SDS011;10089;47.876;8.346;2023-08-20T00:08:45;5.88;;;4.88;;
9698;SDS011;10089;47.876;8.346;2023-08-20T00:11:11;9.15;;;4.65;;
9698;SDS011;10089;47.876;8.346;2023-08-20T00:13:37;9.50;;;5.25;;
9698;SDS011;10089;47.876;8.346;2023-08-20T00:16:03;5.43;;;4.93;;
9698;SDS011;10089;47.876;8.346;2023-08-20T00:18:29;8.82;;;5.45;;
9698;SDS011;10089;47.876;8.346;2023-08-20T00:20:55;4.72;;;4.22;;
9698;SDS011;10089;47.876;8.346;2023-08-20T00:23:21;4.95;;;4.40;;
9698;SDS011;10089;47.876;8.346;2023-08-20T00:25:47;6.82;;;4.57;;
9698;SDS011;10089;47.876;8.346;2023-08-20T00:28:13;5.47;;;4.78;;
9698;SDS011;10089;47.876;8.346;2023-08-20T00:30:39;5.88;;;4.80;;
9698;SDS011;10089;47.876;8.346;2023-08-20T00:33:05;6.22;;;4.97;;
9698;SDS011;10089;47.876;8.346;2023-08-20T00:35:30;7.70;;;4.95;;
9698;SDS011;10089;47.876;8.346;2023-08-20T00:37:56;6.88;;;5.25;;
9698;SDS011;10089;47.876;8.346;2023-08-20T00:40:22;5.45;;;4.95;;
9698;SDS011;10089;47.876;8.346;2023-08-20T00:42:48;6.72;;;5.53;;
9698;SDS011;10089;47.876;8.346;2023-08-20T00:45:14;5.60;;;4.72;;
9698;SDS011;10089;47.876;8.346;2023-08-20T00:47:41;7.15;;;5.03;;
9698;SDS011;10089;47.876;8.346;2023-08-20T00:50:07;7.32;;;5.20;;
9698;SDS011;10089;47.876;8.346;2023-08-20T00:52:34;5.70;;;5.10;;
9698;SDS011;10089;47.876;8.346;2023-08-20T00:55:00;6.88;;;5.50;;
9698;SDS011;10089;47.876;8.346;2023-08-20T00:57:28;6.65;;;5.07;;
9698;SDS011;10089;47.876;8.346;2023-08-20T00:59:54;8.27;;;5.05;;
9698;SDS011;10089;47.876;8.346;2023-08-20T01:02:21;5.80;;;4.70;;
9698;SDS011;10089;47.876;8.346;2023-08-20T01:04:47;7.13;;;4.90;;
9698;SDS011;10089;47.876;8.346;2023-08-20T01:10:02;5.93;;;4.95;;
9698;SDS011;10089;47.876;8.346;2023-08-20T01:12:49;7.65;;;5.28;;
9698;SDS011;10089;47.876;8.346;2023-08-20T01:15:16;7.20;;;4.80;;
9698;SDS011;10089;47.876;8.346;2023-08-20T01:17:42;7.03;;;4.90;;
9698;SDS011;10089;47.876;8.346;2023-08-20T01:20:11;5.68;;;4.75;;
9698;SDS011;10089;47.876;8.346;2023-08-20T01:27:52;5.20;;;4.78;;
9698;SDS011;10089;47.876;8.346;2023-08-20T01:30:24;7.10;;;5.22;;
9698;SDS011;10089;47.876;8.346;2023-08-20T01:32:50;7.22;;;4.70;;
9698;SDS011;10089;47.876;8.346;2023-08-20T01:35:18;6.13;;;4.68;;
9698;SDS011;10089;47.876;8.346;2023-08-20T01:37:44;7.93;;;4.72;;
9698;SDS011;10089;47.876;8.346;2023-08-20T01:40:10;6.28;;;4.85;;
9698;SDS011;10089;47.876;8.346;2023-08-20T01:42:40;6.10;;;5.28;;
9698;SDS011;10089;47.876;8.346;2023-08-20T01:45:06;9.60;;;5.45;;
9698;SDS011;10089;47.876;8.346;2023-08-20T01:47:35;5.70;;;4.82;;
9698;SDS011;10089;47.876;8.346;2023-08-20T01:50:01;8.35;;;5.22;;
9698;SDS011;10089;47.876;8.346;2023-08-20T01:52:27;6.68;;;5.05;;
9698;SDS011;10089;47.876;8.346;2023-08-20T01:54:54;5.97;;;5.00;;
9698;SDS011;10089;47.876;8.346;2023-08-20T01:57:20;7.95;;;5.25;;
9698;SDS011;10089;47.876;8.346;2023-08-20T01:59:47;6.78;;;4.82;;
9698;SDS011;10089;47.876;8.346;2023-08-20T02:02:13;9.95;;;5.10;;
9698;SDS011;10089;47.876;8.346;2023-08-20T02:04:38;6.38;;;5.22;;
9698;SDS011;10089;47.876;8.346;2023-08-20T02:07:04;12.73;;;5.50;;
9698;SDS011;10089;47.876;8.346;2023-08-20T02:09:30;7.72;;;5.10;;
9698;SDS011;10089;47.876;8.346;2023-08-20T02:11:55;10.43;;;5.00;;
9698;SDS011;10089;47.876;8.346;2023-08-20T02:14:21;6.38;;;5.10;;
9698;SDS011;10089;47.876;8.346;2023-08-20T02:16:47;6.90;;;5.10;;
9698;SDS011;10089;47.876;8.346;2023-08-20T02:19:13;5.88;;;4.97;;
9698;SDS011;10089;47.876;8.346;2023-08-20T02:21:39;8.35;;;5.40;;
9698;SDS011;10089;47.876;8.346;2023-08-20T02:24:05;7.13;;;5.50;;
9698;SDS011;10089;47.876;8.346;2023-08-20T02:26:31;7.10;;;5.45;;
9698;SDS011;10089;47.876;8.346;2023-08-20T02:28:57;15.02;;;9.27;;
9698;SDS011;10089;47.876;8.346;2023-08-20T02:31:23;11.57;;;8.82;;
9698;SDS011;10089;47.876;8.346;2023-08-20T02:33:49;12.32;;;8.85;;
9698;SDS011;10089;47.876;8.346;2023-08-20T02:36:14;14.57;;;7.15;;
9698;SDS011;10089;47.876;8.346;2023-08-20T02:38:40;9.38;;;6.57;;
9698;SDS011;10089;47.876;8.346;2023-08-20T02:41:06;6.82;;;6.13;;
9698;SDS011;10089;47.876;8.346;2023-08-20T02:43:32;8.02;;;5.68;;
9698;SDS011;10089;47.876;8.346;2023-08-20T02:45:57;9.95;;;5.50;;
9698;SDS011;10089;47.876;8.346;2023-08-20T02:48:23;6.03;;;5.28;;
9698;SDS011;10089;47.876;8.346;2023-08-20T02:50:52;5.72;;;5.18;;
9698;SDS011;10089;47.876;8.346;2023-08-20T02:53:19;7.63;;;5.68;;
9698;SDS011;10089;47.876;8.346;2023-08-20T02:55:45;9.43;;;5.63;;
9698;SDS011;10089;47.876;8.346;2023-08-20T02:58:11;6.63;;;5.57;;
9698;SDS011;10089;47.876;8.346;2023-08-20T03:00:37;7.75;;;5.55;;
9698;SDS011;10089;47.876;8.346;2023-08-20T03:03:03;7.20;;;5.82;;
9698;SDS011;10089;47.876;8.346;2023-08-20T03:05:32;7.68;;;5.60;;
9698;SDS011;10089;47.876;8.346;2023-08-20T03:07:58;9.73;;;5.65;;
9698;SDS011;10089;47.876;8.346;2023-08-20T03:10:24;6.95;;;5.18;;
9698;SDS011;10089;47.876;8.346;2023-08-20T03:12:49;8.52;;;5.18;;
9698;SDS011;10089;47.876;8.346;2023-08-20T03:15:15;8.95;;;5.45;;
9698;SDS011;10089;47.876;8.346;2023-08-20T03:17:41;7.75;;;5.60;;
9698;SDS011;10089;47.876;8.346;2023-08-20T03:20:06;9.85;;;5.18;;
9698;SDS011;10089;47.876;8.346;2023-08-20T03:22:33;8.50;;;5.30;;
9698;SDS011;10089;47.876;8.346;2023-08-20T03:25:01;9.35;;;5.65;;
9698;SDS011;10089;47.876;8.346;2023-08-20T03:27:26;7.10;;;5.10;;
9698;SDS011;10089;47.876;8.346;2023-08-20T03:29:52;6.95;;;5.50;;
9698;SDS011;10089;47.876;8.346;2023-08-20T03:32:18;7.60;;;5.18;;
9698;SDS011;10089;47.876;8.346;2023-08-20T03:34:44;6.10;;;5.50;;
9698;SDS011;10089;47.876;8.346;2023-08-20T03:37:09;8.50;;;6.00;;
9698;SDS011;10089;47.876;8.346;2023-08-20T03:39:35;8.20;;;5.38;;
9698;SDS011;10089;47.876;8.346;2023-08-20T03:42:00;6.00;;;5.30;;
9698;SDS011;10089;47.876;8.346;2023-08-20T03:44:26;6.25;;;5.40;;
9698;SDS011;10089;47.876;8.346;2023-08-20T03:46:52;5.47;;;4.97;;
9698;SDS011;10089;47.876;8.346;2023-08-20T03:49:17;8.68;;;6.00;;
9698;SDS011;10089;47.876;8.346;2023-08-20T03:51:43;8.85;;;5.80;;
9698;SDS011;10089;47.876;8.346;2023-08-20T03:54:09;12.73;;;5.93;;
9698;SDS011;10089;47.876;8.346;2023-08-20T03:56:34;8.77;;;5.55;;
9698;SDS011;10089;47.876;8.346;2023-08-20T03:59:01;7.85;;;5.20;;
9698;SDS011;10089;47.876;8.346;2023-08-20T04:01:27;6.20;;;5.40;;
9698;SDS011;10089;47.876;8.346;2023-08-20T04:03:53;7.28;;;5.82;;
9698;SDS011;10089;47.876;8.346;2023-08-20T04:06:18;5.93;;;5.32;;
9698;SDS011;10089;47.876;8.346;2023-08-20T04:08:44;6.40;;;5.20;;
9698;SDS011;10089;47.876;8.346;2023-08-20T04:11:09;5.63;;;5.10;;
9698;SDS011;10089;47.876;8.346;2023-08-20T04:13:35;7.03;;;5.53;;
9698;SDS011;10089;47.876;8.346;2023-08-20T04:16:01;5.95;;;4.82;;
9698;SDS011;10089;47.876;8.346;2023-08-20T04:18:26;9.55;;;5.05;;
9698;SDS011;10089;47.876;8.346;2023-08-20T04:20:52;6.25;;;5.65;;
9698;SDS011;10089;47.876;8.346;2023-08-20T04:23:19;7.63;;;5.40;;
9698;SDS011;10089;47.876;8.346;2023-08-20T04:25:45;6.38;;;5.40;;
9698;SDS011;10089;47.876;8.346;2023-08-20T04:28:11;7.00;;;5.18;;
9698;SDS011;10089;47.876;8.346;2023-08-20T04:30:37;7.40;;;5.57;;
9698;SDS011;10089;47.876;8.346;2023-08-20T04:33:03;10.93;;;5.85;;
9698;SDS011;10089;47.876;8.346;2023-08-20T04:35:30;8.07;;;5.78;;
9698;SDS011;10089;47.876;8.346;2023-08-20T04:37:55;8.27;;;6.00;;
9698;SDS011;10089;47.876;8.346;2023-08-20T04:40:21;5.60;;;4.97;;
9698;SDS011;10089;47.876;8.346;2023-08-20T04:42:47;7.10;;;5.75;;
9698;SDS011;10089;47.876;8.346;2023-08-20T04:45:13;7.03;;;5.18;;
9698;SDS011;10089;47.876;8.346;2023-08-20T04:50:08;6.93;;;5.25;;
9698;SDS011;10089;47.876;8.346;2023-08-20T04:52:34;8.93;;;5.20;;
9698;SDS011;10089;47.876;8.346;2023-08-20T04:55:00;7.10;;;5.93;;
9698;SDS011;10089;47.876;8.346;2023-08-20T04:57:26;7.45;;;6.18;;
9698;SDS011;10089;47.876;8.346;2023-08-20T04:59:52;7.68;;;6.68;;
9698;SDS011;10089;47.876;8.346;2023-08-20T05:02:17;8.77;;;5.88;;
9698;SDS011;10089;47.876;8.346;2023-08-20T05:04:43;7.50;;;5.55;;
9698;SDS011;10089;47.876;8.346;2023-08-20T05:07:09;10.43;;;6.10;;
9698;SDS011;10089;47.876;8.346;2023-08-20T05:09:34;7.13;;;6.05;;
9698;SDS011;10089;47.876;8.346;2023-08-20T05:12:00;6.03;;;5.40;;
9698;SDS011;10089;47.876;8.346;2023-08-20T05:14:27;8.13;;;5.95;;
9698;SDS011;10089;47.876;8.346;2023-08-20T05:16:53;8.80;;;5.97;;
9698;SDS011;10089;47.876;8.346;2023-08-20T05:19:18;11.32;;;5.85;;
9698;SDS011;10089;47.876;8.346;2023-08-20T05:21:44;6.70;;;5.70;;
9698;SDS011;10089;47.876;8.346;2023-08-20T05:24:10;8.95;;;5.78;;
9698;SDS011;10089;47.876;8.346;2023-08-20T05:26:35;8.10;;;6.22;;
9698;SDS011;10089;47.876;8.346;2023-08-20T05:29:01;6.93;;;5.63;;
9698;SDS011;10089;47.876;8.346;2023-08-20T05:31:26;9.13;;;5.82;;
9698;SDS011;10089;47.876;8.346;2023-08-20T05:33:53;7.32;;;5.75;;
9698;SDS011;10089;47.876;8.346;2023-08-20T05:36:19;6.65;;;5.85;;
9698;SDS011;10089;47.876;8.346;2023-08-20T05:38:44;7.20;;;5.40;;
9698;SDS011;10089;47.876;8.346;2023-08-20T05:41:10;9.63;;;6.07;;
9698;SDS011;10089;47.876;8.346;2023-08-20T05:43:36;6.57;;;5.88;;
9698;SDS011;10089;47.876;8.346;2023-08-20T05:46:01;6.72;;;6.10;;
9698;SDS011;10089;47.876;8.346;2023-08-20T05:48:27;10.27;;;6.05;;
9698;SDS011;10089;47.876;8.346;2023-08-20T05:50:54;8.07;;;5.93;;
9698;SDS011;10089;47.876;8.346;2023-08-20T05:53:19;8.15;;;6.10;;
9698;SDS011;10089;47.876;8.346;2023-08-20T05:55:46;9.68;;;6.15;;
9698;SDS011;10089;47.876;8.346;2023-08-20T05:58:12;11.18;;;5.72;;
9698;SDS011;10089;47.876;8.346;2023-08-20T06:00:38;7.25;;;6.47;;
9698;SDS011;10089;47.876;8.346;2023-08-20T06:03:03;7.20;;;5.95;;
9698;SDS011;10089;47.876;8.346;2023-08-20T06:05:29;9.48;;;6.70;;
9698;SDS011;10089;47.876;8.346;2023-08-20T06:07:55;7.32;;;6.60;;
9698;SDS011;10089;47.876;8.346;2023-08-20T06:10:20;6.70;;;6.05;;
9698;SDS011;10089;47.876;8.346;2023-08-20T06:12:46;7.32;;;5.93;;
9698;SDS011;10089;47.876;8.346;2023-08-20T06:15:13;7.95;;;6.28;;
9698;SDS011;10089;47.876;8.346;2023-08-20T06:17:39;11.85;;;6.65;;
9698;SDS011;10089;47.876;8.346;2023-08-20T06:20:05;7.97;;;6.25;;
9698;SDS011;10089;47.876;8.346;2023-08-20T06:22:32;7.38;;;6.10;;
9698;SDS011;10089;47.876;8.346;2023-08-20T06:24:58;9.80;;;7.70;;
9698;SDS011;10089;47.876;8.346;2023-08-20T06:27:24;7.80;;;6.88;;
9698;SDS011;10089;47.876;8.346;2023-08-20T06:29:49;6.78;;;6.05;;
9698;SDS011;10089;47.876;8.346;2023-08-20T06:32:15;9.25;;;6.35;;
9698;SDS011;10089;47.876;8.346;2023-08-20T06:34:41;8.43;;;6.35;;
9698;SDS011;10089;47.876;8.346;2023-08-20T06:37:06;7.45;;;6.68;;
9698;SDS011;10089;47.876;8.346;2023-08-20T06:39:32;10.43;;;6.30;;
9698;SDS011;10089;47.876;8.346;2023-08-20T06:41:58;11.05;;;6.50;;
9698;SDS011;10089;47.876;8.346;2023-08-20T06:44:23;9.15;;;6.80;;
9698;SDS011;10089;47.876;8.346;2023-08-20T06:46:49;11.13;;;6.18;;
9698;SDS011;10089;47.876;8.346;2023-08-20T06:49:15;11.82;;;6.85;;
9698;SDS011;10089;47.876;8.346;2023-08-20T06:51:40;8.70;;;6.47;;
9698;SDS011;10089;47.876;8.346;2023-08-20T06:54:06;8.07;;;5.72;;
9698;SDS011;10089;47.876;8.346;2023-08-20T06:56:32;11.73;;;8.85;;
9698;SDS011;10089;47.876;8.346;2023-08-20T06:58:58;8.10;;;7.30;;
9698;SDS011;10089;47.876;8.346;2023-08-20T07:01:25;12.20;;;6.40;;
9698;SDS011;10089;47.876;8.346;2023-08-20T07:03:50;11.57;;;6.43;;
9698;SDS011;10089;47.876;8.346;2023-08-20T07:06:16;7.35;;;5.82;;
9698;SDS011;10089;47.876;8.346;2023-08-20T07:08:43;7.25;;;5.28;;
9698;SDS011;10089;47.876;8.346;2023-08-20T07:11:09;8.20;;;6.07;;
9698;SDS011;10089;47.876;8.346;2023-08-20T07:13:35;8.73;;;5.50;;
9698;SDS011;10089;47.876;8.346;2023-08-20T07:16:01;8.63;;;5.32;;
9698;SDS011;10089;47.876;8.346;2023-08-20T07:18:27;6.63;;;5.45;;
9698;SDS011;10089;47.876;8.346;2023-08-20T07:20:54;12.80;;;5.70;;
9698;SDS011;10089;47.876;8.346;2023-08-20T07:23:21;9.15;;;6.07;;
9698;SDS011;10089;47.876;8.346;2023-08-20T07:25:47;7.80;;;5.70;;
9698;SDS011;10089;47.876;8.346;2023-08-20T07:28:13;7.07;;;5.55;;
9698;SDS011;10089;47.876;8.346;2023-08-20T07:30:39;8.45;;;5.82;;
9698;SDS011;10089;47.876;8.346;2023-08-20T07:33:05;7.50;;;5.32;;
9698;SDS011;10089;47.876;8.346;2023-08-20T07:35:32;7.53;;;5.13;;
9698;SDS011;10089;47.876;8.346;2023-08-20T07:37:58;10.25;;;5.32;;
9698;SDS011;10089;47.876;8.346;2023-08-20T07:40:24;6.05;;;5.00;;
9698;SDS011;10089;47.876;8.346;2023-08-20T07:42:50;10.77;;;5.15;;
9698;SDS011;10089;47.876;8.346;2023-08-20T07:45:16;5.25;;;4.50;;
9698;SDS011;10089;47.876;8.346;2023-08-20T07:47:41;8.18;;;4.70;;
9698;SDS011;10089;47.876;8.346;2023-08-20T07:50:07;8.80;;;5.03;;
9698;SDS011;10089;47.876;8.346;2023-08-20T07:52:33;8.65;;;5.05;;
9698;SDS011;10089;47.876;8.346;2023-08-20T07:54:59;7.95;;;5.13;;
9698;SDS011;10089;47.876;8.346;2023-08-20T07:57:25;7.57;;;4.75;;
9698;SDS011;10089;47.876;8.346;2023-08-20T07:59:51;10.55;;;4.90;;
9698;SDS011;10089;47.876;8.346;2023-08-20T08:02:16;6.18;;;4.38;;
9698;SDS011;10089;47.876;8.346;2023-08-20T08:04:42;6.03;;;4.68;;
9698;SDS011;10089;47.876;8.346;2023-08-20T08:07:09;10.25;;;5.35;;
9698;SDS011;10089;47.876;8.346;2023-08-20T08:09:35;5.65;;;5.07;;
9698;SDS011;10089;47.876;8.346;2023-08-20T08:12:01;7.18;;;5.13;;
9698;SDS011;10089;47.876;8.346;2023-08-20T08:14:27;8.95;;;5.40;;
9698;SDS011;10089;47.876;8.346;2023-08-20T08:16:52;8.77;;;5.22;;
9698;SDS011;10089;47.876;8.346;2023-08-20T08:19:18;9.25;;;5.18;;
9698;SDS011;10089;47.876;8.346;2023-08-20T08:21:45;6.35;;;5.28;;
9698;SDS011;10089;47.876;8.346;2023-08-20T08:24:12;7.43;;;5.80;;
9698;SDS011;10089;47.876;8.346;2023-08-20T08:26:38;8.20;;;5.13;;
9698;SDS011;10089;47.876;8.346;2023-08-20T08:29:05;13.88;;;5.15;;
9698;SDS011;10089;47.876;8.346;2023-08-20T08:31:31;11.43;;;4.82;;
9698;SDS011;10089;47.876;8.346;2023-08-20T08:33:57;5.97;;;4.05;;
9698;SDS011;10089;47.876;8.346;2023-08-20T08:36:23;7.07;;;4.82;;
9698;SDS011;10089;47.876;8.346;2023-08-20T08:38:51;9.95;;;4.43;;
9698;SDS011;10089;47.876;8.346;2023-08-20T08:41:18;9.25;;;5.00;;
9698;SDS011;10089;47.876;8.346;2023-08-20T08:43:48;5.93;;;4.60;;
9698;SDS011;10089;47.876;8.346;2023-08-20T08:46:15;7.35;;;4.43;;
9698;SDS011;10089;47.876;8.346;2023-08-20T08:48:41;7.57;;;4.47;;
9698;SDS011;10089;47.876;8.346;2023-08-20T08:51:08;7.97;;;4.82;;
9698;SDS011;10089;47.876;8.346;2023-08-20T08:53:34;12.95;;;4.93;;
9698;SDS011;10089;47.876;8.346;2023-08-20T08:56:00;7.13;;;4.57;;
9698;SDS011;10089;47.876;8.346;2023-08-20T08:58:27;5.50;;;4.15;;
9698;SDS011;10089;47.876;8.346;2023-08-20T09:00:53;5.20;;;4.30;;
9698;SDS011;10089;47.876;8.346;2023-08-20T09:03:19;9.93;;;4.60;;
9698;SDS011;10089;47.876;8.346;2023-08-20T09:05:46;4.57;;;4.03;;
9698;SDS011;10089;47.876;8.346;2023-08-20T09:08:23;6.55;;;4.70;;
9698;SDS011;10089;47.876;8.346;2023-08-20T09:10:53;7.47;;;4.47;;
9698;SDS011;10089;47.876;8.346;2023-08-20T09:15:59;7.07;;;3.90;;
9698;SDS011;10089;47.876;8.346;2023-08-20T09:18:27;8.65;;;4.13;;
9698;SDS011;10089;47.876;8.346;2023-08-20T09:20:54;9.38;;;4.45;;
9698;SDS011;10089;47.876;8.346;2023-08-20T09:23:19;10.00;;;4.32;;
9698;SDS011;10089;47.876;8.346;2023-08-20T09:25:45;6.70;;;4.10;;
9698;SDS011;10089;47.876;8.346;2023-08-20T09:28:11;8.43;;;4.22;;
9698;SDS011;10089;47.876;8.346;2023-08-20T09:30:37;5.30;;;4.10;;
9698;SDS011;10089;47.876;8.346;2023-08-20T09:33:07;6.45;;;4.35;;
9698;SDS011;10089;47.876;8.346;2023-08-20T09:35:35;7.38;;;4.20;;
9698;SDS011;10089;47.876;8.346;2023-08-20T09:38:02;9.75;;;4.20;;
9698;SDS011;10089;47.876;8.346;2023-08-20T09:40:29;8.48;;;4.50;;
9698;SDS011;10089;47.876;8.346;2023-08-20T09:42:56;4.93;;;3.90;;
9698;SDS011;10089;47.876;8.346;2023-08-20T09:45:23;6.43;;;3.90;;
9698;SDS011;10089;47.876;8.346;2023-08-20T09:47:50;4.93;;;4.05;;
9698;SDS011;10089;47.876;8.346;2023-08-20T09:50:20;5.60;;;4.45;;
9698;SDS011;10089;47.876;8.346;2023-08-20T09:52:57;8.18;;;4.47;;
9698;SDS011;10089;47.876;8.346;2023-08-20T09:55:28;7.95;;;4.43;;
9698;SDS011;10089;47.876;8.346;2023-08-20T09:57:57;8.90;;;4.20;;
9698;SDS011;10089;47.876;8.346;2023-08-20T10:00:25;9.93;;;4.00;;
9698;SDS011;10089;47.876;8.346;2023-08-20T10:02:52;12.52;;;4.65;;
9698;SDS011;10089;47.876;8.346;2023-08-20T10:05:18;6.25;;;4.13;;
9698;SDS011;10089;47.876;8.346;2023-08-20T10:07:46;7.43;;;4.25;;
9698;SDS011;10089;47.876;8.346;2023-08-20T10:10:12;5.13;;;4.28;;
9698;SDS011;10089;47.876;8.346;2023-08-20T10:12:38;7.47;;;4.30;;
9698;SDS011;10089;47.876;8.346;2023-08-20T10:15:07;5.05;;;3.70;;
9698;SDS011;10089;47.876;8.346;2023-08-20T10:17:34;8.15;;;3.97;;
9698;SDS011;10089;47.876;8.346;2023-08-20T10:20:02;6.60;;;4.05;;
9698;SDS011;10089;47.876;8.346;2023-08-20T10:22:36;5.18;;;4.22;;
9698;SDS011;10089;47.876;8.346;2023-08-20T10:25:05;6.80;;;4.20;;
9698;SDS011;10089;47.876;8.346;2023-08-20T10:27:32;7.40;;;4.20;;
9698;SDS011;10089;47.876;8.346;2023-08-20T10:29:59;8.23;;;4.25;;
9698;SDS011;10089;47.876;8.346;2023-08-20T10:35:10;4.10;;;3.70;;
9698;SDS011;10089;47.876;8.346;2023-08-20T10:37:35;7.20;;;4.15;;
9698;SDS011;10089;47.876;8.346;2023-08-20T10:40:02;5.38;;;4.35;;
9698;SDS011;10089;47.876;8.346;2023-08-20T10:42:30;10.32;;;4.28;;
9698;SDS011;10089;47.876;8.346;2023-08-20T10:47:46;5.65;;;3.95;;
9698;SDS011;10089;47.876;8.346;2023-08-20T10:50:17;8.50;;;4.25;;
9698;SDS011;10089;47.876;8.346;2023-08-20T10:52:47;7.53;;;3.97;;
9698;SDS011;10089;47.876;8.346;2023-08-20T10:55:14;6.45;;;3.83;;
9698;SDS011;10089;47.876;8.346;2023-08-20T10:57:40;9.07;;;3.60;;
9698;SDS011;10089;47.876;8.346;2023-08-20T11:00:06;7.68;;;4.25;;
9698;SDS011;10089;47.876;8.346;2023-08-20T11:02:39;6.13;;;3.92;;
9698;SDS011;10089;47.876;8.346;2023-08-20T11:05:20;6.53;;;4.35;;
9698;SDS011;10089;47.876;8.346;2023-08-20T11:07:46;8.18;;;4.50;;
9698;SDS011;10089;47.876;8.346;2023-08-20T11:10:14;6.78;;;3.53;;
9698;SDS011;10089;47.876;8.346;2023-08-20T11:12:41;8.43;;;4.25;;
9698;SDS011;10089;47.876;8.346;2023-08-20T11:15:08;4.80;;;3.75;;
9698;SDS011;10089;47.876;8.346;2023-08-20T11:17:34;5.50;;;3.60;;
9698;SDS011;10089;47.876;8.346;2023-08-20T11:20:05;6.30;;;3.72;;
9698;SDS011;10089;47.876;8.346;2023-08-20T11:22:32;7.30;;;3.92;;
9698;SDS011;10089;47.876;8.346;2023-08-20T11:24:59;7.75;;;3.75;;
9698;SDS011;10089;47.876;8.346;2023-08-20T11:27:28;6.25;;;3.90;;
9698;SDS011;10089;47.876;8.346;2023-08-20T11:29:53;7.78;;;4.40;;
9698;SDS011;10089;47.876;8.346;2023-08-20T11:32:21;6.55;;;3.75;;
9698;SDS011;10089;47.876;8.346;2023-08-20T11:34:48;4.30;;;3.90;;
9698;SDS011;10089;47.876;8.346;2023-08-20T11:37:17;4.18;;;3.75;;
9698;SDS011;10089;47.876;8.346;2023-08-20T11:39:47;5.30;;;4.00;;
9698;SDS011;10089;47.876;8.346;2023-08-20T11:42:14;5.43;;;3.80;;
9698;SDS011;10089;47.876;8.346;2023-08-20T11:44:43;11.02;;;4.20;;
9698;SDS011;10089;47.876;8.346;2023-08-20T11:47:17;11.00;;;3.95;;
9698;SDS011;10089;47.876;8.346;2023-08-20T11:49:43;6.50;;;3.85;;
9698;SDS011;10089;47.876;8.346;2023-08-20T11:52:09;12.10;;;3.95;;
9698;SDS011;10089;47.876;8.346;2023-08-20T11:54:35;7.53;;;3.60;;
9698;SDS011;10089;47.876;8.346;2023-08-20T11:57:05;6.93;;;3.80;;
9698;SDS011;10089;47.876;8.346;2023-08-20T11:59:32;9.55;;;3.83;;
9698;SDS011;10089;47.876;8.346;2023-08-20T12:01:58;6.72;;;3.75;;
9698;SDS011;10089;47.876;8.346;2023-08-20T12:04:26;6.25;;;3.92;;
9698;SDS011;10089;47.876;8.346;2023-08-20T12:07:09;5.75;;;3.97;;
9698;SDS011;10089;47.876;8.346;2023-08-20T12:09:35;7.95;;;3.72;;
9698;SDS011;10089;47.876;8.346;2023-08-20T12:12:01;4.43;;;3.63;;
9698;SDS011;10089;47.876;8.346;2023-08-20T12:14:27;6.82;;;3.95;;
9698;SDS011;10089;47.876;8.346;2023-08-20T12:16:53;5.25;;;3.83;;
9698;SDS011;10089;47.876;8.346;2023-08-20T12:19:19;5.22;;;3.40;;
9698;SDS011;10089;47.876;8.346;2023-08-20T12:21:45;6.32;;;3.72;;
9698;SDS011;10089;47.876;8.346;2023-08-20T12:24:11;7.78;;;3.95;;
9698;SDS011;10089;47.876;8.346;2023-08-20T12:26:40;6.85;;;3.78;;
9698;SDS011;10089;47.876;8.346;2023-08-20T12:29:06;7.55;;;3.90;;
9698;SDS011;10089;47.876;8.346;2023-08-20T12:31:32;5.10;;;3.80;;
9698;SDS011;10089;47.876;8.346;2023-08-20T12:33:58;6.55;;;3.97;;
9698;SDS011;10089;47.876;8.346;2023-08-20T12:36:24;5.65;;;3.78;;
9698;SDS011;10089;47.876;8.346;2023-08-20T12:38:50;8.68;;;3.90;;
9698;SDS011;10089;47.876;8.346;2023-08-20T12:41:16;8.15;;;4.00;;
9698;SDS011;10089;47.876;8.346;2023-08-20T12:43:42;6.15;;;3.83;;
9698;SDS011;10089;47.876;8.346;2023-08-20T12:46:07;7.97;;;4.00;;
9698;SDS011;10089;47.876;8.346;2023-08-20T12:48:33;4.93;;;3.67;;
9698;SDS011;10089;47.876;8.346;2023-08-20T12:50:59;6.80;;;4.13;;
9698;SDS011;10089;47.876;8.346;2023-08-20T12:53:24;7.97;;;3.55;;
9698;SDS011;10089;47.876;8.346;2023-08-20T12:55:50;6.07;;;3.88;;
9698;SDS011;10089;47.876;8.346;2023-08-20T12:58:15;5.40;;;3.90;;
9698;SDS011;10089;47.876;8.346;2023-08-20T13:00:41;5.80;;;4.03;;
9698;SDS011;10089;47.876;8.346;2023-08-20T13:03:07;6.85;;;4.07;;
9698;SDS011;10089;47.876;8.346;2023-08-20T13:05:33;7.88;;;3.67;;
9698;SDS011;10089;47.876;8.346;2023-08-20T13:07:59;5.68;;;4.13;;
9698;SDS011;10089;47.876;8.346;2023-08-20T13:10:25;6.03;;;3.58;;
9698;SDS011;10089;47.876;8.346;2023-08-20T13:12:51;9.20;;;4.03;;
9698;SDS011;10089;47.876;8.346;2023-08-20T13:15:19;7.82;;;3.83;;
9698;SDS011;10089;47.876;8.346;2023-08-20T13:17:47;8.05;;;3.85;;
9698;SDS011;10089;47.876;8.346;2023-08-20T13:20:14;7.10;;;3.72;;
9698;SDS011;10089;47.876;8.346;2023-08-20T13:22:40;10.38;;;3.60;;
9698;SDS011;10089;47.876;8.346;2023-08-20T13:25:06;6.22;;;3.55;;
9698;SDS011;10089;47.876;8.346;2023-08-20T13:27:32;6.47;;;3.25;;
9698;SDS011;10089;47.876;8.346;2023-08-20T13:29:58;4.28;;;3.28;;
9698;SDS011;10089;47.876;8.346;2023-08-20T13:32:24;5.05;;;3.78;;
9698;SDS011;10089;47.876;8.346;2023-08-20T13:34:50;5.68;;;3.80;;
9698;SDS011;10089;47.876;8.346;2023-08-20T13:37:15;6.38;;;3.72;;
9698;SDS011;10089;47.876;8.346;2023-08-20T13:39:42;8.15;;;3.65;;
9698;SDS011;10089;47.876;8.346;2023-08-20T13:42:08;6.57;;;3.28;;
9698;SDS011;10089;47.876;8.346;2023-08-20T13:44:33;8.40;;;3.90;;
9698;SDS011;10089;47.876;8.346;2023-08-20T13:46:59;6.10;;;3.58;;
9698;SDS011;10089;47.876;8.346;2023-08-20T13:49:25;13.10;;;3.65;;
9698;SDS011;10089;47.876;8.346;2023-08-20T13:51:50;5.82;;;3.30;;
9698;SDS011;10089;47.876;8.346;2023-08-20T13:54:16;8.90;;;3.63;;
9698;SDS011;10089;47.876;8.346;2023-08-20T13:56:42;6.60;;;3.40;;
9698;SDS011;10089;47.876;8.346;2023-08-20T13:59:11;6.70;;;4.05;;
9698;SDS011;10089;47.876;8.346;2023-08-20T14:01:37;4.97;;;3.38;;
9698;SDS011;10089;47.876;8.346;2023-08-20T14:04:03;6.90;;;3.50;;
9698;SDS011;10089;47.876;8.346;2023-08-20T14:06:29;14.35;;;3.50;;
9698;SDS011;10089;47.876;8.346;2023-08-20T14:08:54;5.53;;;3.30;;
9698;SDS011;10089;47.876;8.346;2023-08-20T14:11:20;7.60;;;3.30;;
9698;SDS011;10089;47.876;8.346;2023-08-20T14:13:47;6.28;;;3.80;;
9698;SDS011;10089;47.876;8.346;2023-08-20T14:16:13;6.47;;;3.20;;
9698;SDS011;10089;47.876;8.346;2023-08-20T14:18:38;10.63;;;3.80;;
9698;SDS011;10089;47.876;8.346;2023-08-20T14:21:04;5.95;;;3.50;;
9698;SDS011;10089;47.876;8.346;2023-08-20T14:23:30;6.57;;;3.63;;
9698;SDS011;10089;47.876;8.346;2023-08-20T14:25:55;6.80;;;3.70;;
9698;SDS011;10089;47.876;8.346;2023-08-20T14:28:21;7.80;;;3.70;;
9698;SDS011;10089;47.876;8.346;2023-08-20T14:30:47;7.20;;;3.47;;
9698;SDS011;10089;47.876;8.346;2023-08-20T14:33:14;7.40;;;3.65;;
9698;SDS011;10089;47.876;8.346;2023-08-20T14:35:40;9.77;;;3.72;;
9698;SDS011;10089;47.876;8.346;2023-08-20T14:38:05;8.18;;;3.47;;
9698;SDS011;10089;47.876;8.346;2023-08-20T14:40:36;6.97;;;4.25;;
9698;SDS011;10089;47.876;8.346;2023-08-20T14:43:04;5.72;;;3.88;;
9698;SDS011;10089;47.876;8.346;2023-08-20T14:45:29;7.55;;;3.60;;
9698;SDS011;10089;47.876;8.346;2023-08-20T14:47:55;7.68;;;4.05;;
9698;SDS011;10089;47.876;8.346;2023-08-20T14:50:21;7.22;;;4.07;;
9698;SDS011;10089;47.876;8.346;2023-08-20T14:52:46;10.48;;;3.60;;
9698;SDS011;10089;47.876;8.346;2023-08-20T14:55:17;5.03;;;3.72;;
9698;SDS011;10089;47.876;8.346;2023-08-20T14:57:43;7.20;;;3.60;;
9698;SDS011;10089;47.876;8.346;2023-08-20T15:00:09;4.40;;;3.28;;
9698;SDS011;10089;47.876;8.346;2023-08-20T15:02:39;7.65;;;3.33;;
9698;SDS011;10089;47.876;8.346;2023-08-20T15:05:09;11.63;;;3.42;;
9698;SDS011;10089;47.876;8.346;2023-08-20T15:07:35;9.95;;;3.28;;
9698;SDS011;10089;47.876;8.346;2023-08-20T15:10:04;6.18;;;3.72;;
9698;SDS011;10089;47.876;8.346;2023-08-20T15:12:32;6.15;;;3.17;;
9698;SDS011;10089;47.876;8.346;2023-08-20T15:14:59;4.15;;;2.90;;